sensor_id;sensor_type;location;lat;lon;timestamp;temperature;humidity
20231;DHT22;10274;49.022;9.338;2023-04-24T00:02:22;11.50;1.00
20231;DHT22;10274;49.022;9.338;2023-04-24T00:04:49;11.40;11.40
20231;DHT22;10274;49.022;9.338;2023-04-24T00:07:16;11.20;41.50
20231;DHT22;10274;49.022;9.338;2023-04-24T00:09:43;11.30;21.70
20231;DHT22;10274;49.022;9.338;2023-04-24T00:12:10;11.30;28.90
20231;DHT22;10274;49.022;9.338;2023-04-24T00:14:38;11.20;45.50
20231;DHT22;10274;49.022;9.338;2023-04-24T00:17:04;11.10;71.60
20231;DHT22;10274;49.022;9.338;2023-04-24T00:19:35;11.10;63.20
20231;DHT22;10274;49.022;9.338;2023-04-24T00:22:02;11.20;50.70
20231;DHT22;10274;49.022;9.338;2023-04-24T00:24:29;11.20;57.50
20231;DHT22;10274;49.022;9.338;2023-04-24T00:26:55;11.30;49.40
20231;DHT22;10274;49.022;9.338;2023-04-24T00:29:22;11.10;82.90
20231;DHT22;10274;49.022;9.338;2023-04-24T00:31:50;11.20;35.80
20231;DHT22;10274;49.022;9.338;2023-04-24T00:34:17;11.30;12.10
20231;DHT22;10274;49.022;9.338;2023-04-24T00:36:43;11.50;1.00
20231;DHT22;10274;49.022;9.338;2023-04-24T00:39:10;11.70;1.00
20231;DHT22;10274;49.022;9.338;2023-04-24T00:41:37;11.70;1.00
20231;DHT22;10274;49.022;9.338;2023-04-24T00:44:04;11.70;1.00
20231;DHT22;10274;49.022;9.338;2023-04-24T00:46:31;11.70;1.00
20231;DHT22;10274;49.022;9.338;2023-04-24T00:48:59;11.80;1.00
20231;DHT22;10274;49.022;9.338;2023-04-24T00:51:26;11.70;1.00
20231;DHT22;10274;49.022;9.338;2023-04-24T00:53:53;11.70;1.00
20231;DHT22;10274;49.022;9.338;2023-04-24T00:56:20;11.70;1.00
20231;DHT22;10274;49.022;9.338;2023-04-24T00:58:47;11.70;1.00
20231;DHT22;10274;49.022;9.338;2023-04-24T01:01:13;11.70;1.00
20231;DHT22;10274;49.022;9.338;2023-04-24T01:03:40;11.70;1.00
20231;DHT22;10274;49.022;9.338;2023-04-24T01:06:09;11.80;1.00
20231;DHT22;10274;49.022;9.338;2023-04-24T01:08:37;11.80;1.00
20231;DHT22;10274;49.022;9.338;2023-04-24T01:11:06;11.80;1.00
20231;DHT22;10274;49.022;9.338;2023-04-24T01:13:34;11.70;1.00
20231;DHT22;10274;49.022;9.338;2023-04-24T01:16:00;11.80;1.00
20231;DHT22;10274;49.022;9.338;2023-04-24T01:18:27;11.80;1.00
20231;DHT22;10274;49.022;9.338;2023-04-24T01:20:58;11.70;1.00
20231;DHT22;10274;49.022;9.338;2023-04-24T01:23:27;11.70;1.00
20231;DHT22;10274;49.022;9.338;2023-04-24T01:25:54;11.70;1.00
20231;DHT22;10274;49.022;9.338;2023-04-24T01:28:21;11.70;1.00
20231;DHT22;10274;49.022;9.338;2023-04-24T01:30:48;11.70;1.00
20231;DHT22;10274;49.022;9.338;2023-04-24T01:33:15;11.70;1.00
20231;DHT22;10274;49.022;9.338;2023-04-24T01:35:42;11.70;1.00
20231;DHT22;10274;49.022;9.338;2023-04-24T01:38:09;11.70;1.00
20231;DHT22;10274;49.022;9.338;2023-04-24T01:40:37;11.80;1.00
20231;DHT22;10274;49.022;9.338;2023-04-24T01:43:04;11.80;1.00
20231;DHT22;10274;49.022;9.338;2023-04-24T01:45:31;11.80;1.00
20231;DHT22;10274;49.022;9.338;2023-04-24T01:47:58;11.70;1.00
20231;DHT22;10274;49.022;9.338;2023-04-24T01:50:25;11.70;1.00
20231;DHT22;10274;49.022;9.338;2023-04-24T01:52:51;11.60;1.00
20231;DHT22;10274;49.022;9.338;2023-04-24T01:55:18;11.60;1.00
20231;DHT22;10274;49.022;9.338;2023-04-24T01:57:46;11.60;1.00
20231;DHT22;10274;49.022;9.338;2023-04-24T02:00:13;11.60;1.00
20231;DHT22;10274;49.022;9.338;2023-04-24T02:02:41;11.60;1.00
20231;DHT22;10274;49.022;9.338;2023-04-24T02:05:08;11.70;1.00
20231;DHT22;10274;49.022;9.338;2023-04-24T02:07:36;11.70;1.00
20231;DHT22;10274;49.022;9.338;2023-04-24T02:10:03;11.70;1.00
20231;DHT22;10274;49.022;9.338;2023-04-24T02:12:30;11.70;1.00
20231;DHT22;10274;49.022;9.338;2023-04-24T02:14:58;11.80;1.00
20231;DHT22;10274;49.022;9.338;2023-04-24T02:17:25;11.70;1.00
20231;DHT22;10274;49.022;9.338;2023-04-24T02:19:52;11.60;1.00
20231;DHT22;10274;49.022;9.338;2023-04-24T02:22:18;11.60;1.00
20231;DHT22;10274;49.022;9.338;2023-04-24T02:24:45;11.60;1.00
20231;DHT22;10274;49.022;9.338;2023-04-24T02:27:12;11.60;1.00
20231;DHT22;10274;49.022;9.338;2023-04-24T02:29:39;11.70;1.00
20231;DHT22;10274;49.022;9.338;2023-04-24T02:32:07;11.80;1.00
20231;DHT22;10274;49.022;9.338;2023-04-24T02:34:36;11.70;1.00
20231;DHT22;10274;49.022;9.338;2023-04-24T02:37:03;11.80;1.00
20231;DHT22;10274;49.022;9.338;2023-04-24T02:39:30;11.80;1.00
20231;DHT22;10274;49.022;9.338;2023-04-24T02:41:56;11.80;1.00
20231;DHT22;10274;49.022;9.338;2023-04-24T02:44:23;11.80;1.00
20231;DHT22;10274;49.022;9.338;2023-04-24T02:46:50;11.80;1.00
20231;DHT22;10274;49.022;9.338;2023-04-24T02:49:18;11.90;1.00
20231;DHT22;10274;49.022;9.338;2023-04-24T02:51:45;11.90;1.00
20231;DHT22;10274;49.022;9.338;2023-04-24T02:54:11;11.80;1.00
20231;DHT22;10274;49.022;9.338;2023-04-24T02:56:38;11.80;1.00
20231;DHT22;10274;49.022;9.338;2023-04-24T02:59:05;11.90;1.00
20231;DHT22;10274;49.022;9.338;2023-04-24T03:01:31;11.90;1.00
20231;DHT22;10274;49.022;9.338;2023-04-24T03:03:59;11.90;1.00
20231;DHT22;10274;49.022;9.338;2023-04-24T03:06:26;11.80;1.00
20231;DHT22;10274;49.022;9.338;2023-04-24T03:08:53;12.00;1.00
20231;DHT22;10274;49.022;9.338;2023-04-24T03:11:20;12.00;1.00
20231;DHT22;10274;49.022;9.338;2023-04-24T03:13:47;11.90;1.00
20231;DHT22;10274;49.022;9.338;2023-04-24T03:16:13;11.90;1.00
20231;DHT22;10274;49.022;9.338;2023-04-24T03:18:40;11.80;1.00
20231;DHT22;10274;49.022;9.338;2023-04-24T03:21:07;11.70;1.00
20231;DHT22;10274;49.022;9.338;2023-04-24T03:23:35;11.70;1.00
20231;DHT22;10274;49.022;9.338;2023-04-24T03:26:01;11.70;1.00
20231;DHT22;10274;49.022;9.338;2023-04-24T03:28:28;11.70;1.00
20231;DHT22;10274;49.022;9.338;2023-04-24T03:30:55;11.50;1.00
20231;DHT22;10274;49.022;9.338;2023-04-24T03:33:22;11.50;1.00
20231;DHT22;10274;49.022;9.338;2023-04-24T03:35:48;11.50;1.00
20231;DHT22;10274;49.022;9.338;2023-04-24T03:38:15;11.50;1.00
20231;DHT22;10274;49.022;9.338;2023-04-24T03:40:43;11.60;1.00
20231;DHT22;10274;49.022;9.338;2023-04-24T03:43:09;11.60;1.00
20231;DHT22;10274;49.022;9.338;2023-04-24T03:45:36;11.60;1.00
20231;DHT22;10274;49.022;9.338;2023-04-24T03:48:03;11.60;1.00
20231;DHT22;10274;49.022;9.338;2023-04-24T03:50:29;11.60;1.00
20231;DHT22;10274;49.022;9.338;2023-04-24T03:52:56;11.60;1.00
20231;DHT22;10274;49.022;9.338;2023-04-24T03:55:23;11.60;1.00
20231;DHT22;10274;49.022;9.338;2023-04-24T03:57:51;11.50;1.00
20231;DHT22;10274;49.022;9.338;2023-04-24T04:00:18;11.50;1.00
20231;DHT22;10274;49.022;9.338;2023-04-24T04:02:46;11.50;1.00
20231;DHT22;10274;49.022;9.338;2023-04-24T04:05:13;11.50;1.00
20231;DHT22;10274;49.022;9.338;2023-04-24T04:07:39;11.60;1.00
20231;DHT22;10274;49.022;9.338;2023-04-24T04:10:07;11.50;1.00
20231;DHT22;10274;49.022;9.338;2023-04-24T04:12:33;11.50;1.00
20231;DHT22;10274;49.022;9.338;2023-04-24T04:15:01;11.50;1.00
20231;DHT22;10274;49.022;9.338;2023-04-24T04:17:29;11.40;17.30
20231;DHT22;10274;49.022;9.338;2023-04-24T04:19:55;11.40;1.00
20231;DHT22;10274;49.022;9.338;2023-04-24T04:22:22;11.40;24.30
20231;DHT22;10274;49.022;9.338;2023-04-24T04:24:49;11.20;73.30
20231;DHT22;10274;49.022;9.338;2023-04-24T04:27:16;11.20;98.80
20231;DHT22;10274;49.022;9.338;2023-04-24T04:29:44;11.10;99.90
20231;DHT22;10274;49.022;9.338;2023-04-24T04:32:12;11.00;99.90
20231;DHT22;10274;49.022;9.338;2023-04-24T04:34:39;10.80;99.90
20231;DHT22;10274;49.022;9.338;2023-04-24T04:37:05;10.70;99.90
20231;DHT22;10274;49.022;9.338;2023-04-24T04:39:32;10.60;99.90
20231;DHT22;10274;49.022;9.338;2023-04-24T04:41:59;10.60;99.90
20231;DHT22;10274;49.022;9.338;2023-04-24T04:44:25;10.50;99.90
20231;DHT22;10274;49.022;9.338;2023-04-24T04:46:54;10.40;99.90
20231;DHT22;10274;49.022;9.338;2023-04-24T04:49:23;10.30;99.90
20231;DHT22;10274;49.022;9.338;2023-04-24T04:51:50;10.30;99.90
20231;DHT22;10274;49.022;9.338;2023-04-24T04:54:17;10.20;99.90
20231;DHT22;10274;49.022;9.338;2023-04-24T04:56:43;10.10;99.90
20231;DHT22;10274;49.022;9.338;2023-04-24T04:59:10;10.10;99.90
20231;DHT22;10274;49.022;9.338;2023-04-24T05:01:37;10.10;99.90
20231;DHT22;10274;49.022;9.338;2023-04-24T05:04:04;10.10;99.90
20231;DHT22;10274;49.022;9.338;2023-04-24T05:06:32;10.10;99.90
20231;DHT22;10274;49.022;9.338;2023-04-24T05:08:59;10.10;99.90
20231;DHT22;10274;49.022;9.338;2023-04-24T05:11:26;10.10;99.90
20231;DHT22;10274;49.022;9.338;2023-04-24T05:13:52;10.00;99.90
20231;DHT22;10274;49.022;9.338;2023-04-24T05:16:19;10.10;99.90
20231;DHT22;10274;49.022;9.338;2023-04-24T05:18:46;10.10;99.90
20231;DHT22;10274;49.022;9.338;2023-04-24T05:21:12;10.10;99.90
20231;DHT22;10274;49.022;9.338;2023-04-24T05:23:40;10.00;99.90
20231;DHT22;10274;49.022;9.338;2023-04-24T05:26:07;10.10;99.90
20231;DHT22;10274;49.022;9.338;2023-04-24T05:28:34;10.10;99.90
20231;DHT22;10274;49.022;9.338;2023-04-24T05:31:02;10.10;99.90
20231;DHT22;10274;49.022;9.338;2023-04-24T05:33:28;10.10;99.90
20231;DHT22;10274;49.022;9.338;2023-04-24T05:35:55;10.10;99.90
20231;DHT22;10274;49.022;9.338;2023-04-24T05:38:22;10.10;99.90
20231;DHT22;10274;49.022;9.338;2023-04-24T05:40:51;10.10;99.90
20231;DHT22;10274;49.022;9.338;2023-04-24T05:43:17;10.20;99.90
20231;DHT22;10274;49.022;9.338;2023-04-24T05:45:44;10.20;99.90
20231;DHT22;10274;49.022;9.338;2023-04-24T05:48:11;10.10;99.90
20231;DHT22;10274;49.022;9.338;2023-04-24T05:50:37;10.10;99.90
20231;DHT22;10274;49.022;9.338;2023-04-24T05:53:04;10.10;99.90
20231;DHT22;10274;49.022;9.338;2023-04-24T05:55:32;10.20;95.00
20231;DHT22;10274;49.022;9.338;2023-04-24T05:58:00;10.20;79.30
20231;DHT22;10274;49.022;9.338;2023-04-24T06:00:27;10.20;97.90
20231;DHT22;10274;49.022;9.338;2023-04-24T06:02:54;10.30;99.90
20231;DHT22;10274;49.022;9.338;2023-04-24T06:05:20;10.20;79.80
20231;DHT22;10274;49.022;9.338;2023-04-24T06:07:47;10.20;69.90
20231;DHT22;10274;49.022;9.338;2023-04-24T06:10:14;10.10;86.60
20231;DHT22;10274;49.022;9.338;2023-04-24T06:12:41;10.20;80.80
20231;DHT22;10274;49.022;9.338;2023-04-24T06:15:10;10.20;63.30
20231;DHT22;10274;49.022;9.338;2023-04-24T06:17:37;10.30;78.10
20231;DHT22;10274;49.022;9.338;2023-04-24T06:22:31;10.60;1.00
20231;DHT22;10274;49.022;9.338;2023-04-24T06:24:58;10.60;1.00
20231;DHT22;10274;49.022;9.338;2023-04-24T06:27:25;10.70;1.00
20231;DHT22;10274;49.022;9.338;2023-04-24T06:29:52;10.80;1.00
20231;DHT22;10274;49.022;9.338;2023-04-24T06:32:22;10.90;1.00
20231;DHT22;10274;49.022;9.338;2023-04-24T06:34:49;10.90;1.00
20231;DHT22;10274;49.022;9.338;2023-04-24T06:37:15;11.20;1.00
20231;DHT22;10274;49.022;9.338;2023-04-24T06:39:42;11.40;1.00
20231;DHT22;10274;49.022;9.338;2023-04-24T06:42:09;11.30;1.00
20231;DHT22;10274;49.022;9.338;2023-04-24T06:44:35;11.30;1.00
20231;DHT22;10274;49.022;9.338;2023-04-24T06:47:06;11.30;1.00
20231;DHT22;10274;49.022;9.338;2023-04-24T06:49:34;11.30;1.00
20231;DHT22;10274;49.022;9.338;2023-04-24T06:52:01;11.30;1.00
20231;DHT22;10274;49.022;9.338;2023-04-24T06:54:28;11.30;1.00
20231;DHT22;10274;49.022;9.338;2023-04-24T06:56:55;11.30;1.00
20231;DHT22;10274;49.022;9.338;2023-04-24T06:59:22;11.20;1.00
20231;DHT22;10274;49.022;9.338;2023-04-24T07:01:49;11.30;1.00
20231;DHT22;10274;49.022;9.338;2023-04-24T07:04:16;11.20;1.00
20231;DHT22;10274;49.022;9.338;2023-04-24T07:06:45;11.30;1.00
20231;DHT22;10274;49.022;9.338;2023-04-24T07:09:12;11.40;1.00
20231;DHT22;10274;49.022;9.338;2023-04-24T07:11:41;11.30;1.00
20231;DHT22;10274;49.022;9.338;2023-04-24T07:14:08;11.50;1.00
20231;DHT22;10274;49.022;9.338;2023-04-24T07:16:35;11.60;1.00
20231;DHT22;10274;49.022;9.338;2023-04-24T07:19:02;11.60;1.00
20231;DHT22;10274;49.022;9.338;2023-04-24T07:21:28;11.70;1.00
20231;DHT22;10274;49.022;9.338;2023-04-24T07:23:58;11.60;1.00
20231;DHT22;10274;49.022;9.338;2023-04-24T07:26:25;11.70;99.90
20231;DHT22;10274;49.022;9.338;2023-04-24T07:28:53;12.00;1.00
20231;DHT22;10274;49.022;9.338;2023-04-24T07:31:20;12.50;99.90
20231;DHT22;10274;49.022;9.338;2023-04-24T07:33:47;12.40;42.30
20231;DHT22;10274;49.022;9.338;2023-04-24T07:36:14;12.20;99.90
20231;DHT22;10274;49.022;9.338;2023-04-24T07:38:44;12.40;1.00
20231;DHT22;10274;49.022;9.338;2023-04-24T07:41:12;12.40;99.90
20231;DHT22;10274;49.022;9.338;2023-04-24T07:43:39;12.20;99.90
20231;DHT22;10274;49.022;9.338;2023-04-24T07:46:06;12.00;1.00
20231;DHT22;10274;49.022;9.338;2023-04-24T07:48:32;12.00;1.00
20231;DHT22;10274;49.022;9.338;2023-04-24T07:50:59;11.90;1.00
20231;DHT22;10274;49.022;9.338;2023-04-24T07:53:26;11.90;1.00
20231;DHT22;10274;49.022;9.338;2023-04-24T07:55:54;11.80;1.00
20231;DHT22;10274;49.022;9.338;2023-04-24T07:58:22;11.90;1.00
20231;DHT22;10274;49.022;9.338;2023-04-24T08:00:48;12.00;1.00
20231;DHT22;10274;49.022;9.338;2023-04-24T08:03:15;12.30;1.00
20231;DHT22;10274;49.022;9.338;2023-04-24T08:05:45;12.70;99.90
20231;DHT22;10274;49.022;9.338;2023-04-24T08:08:11;12.30;1.00
20231;DHT22;10274;49.022;9.338;2023-04-24T08:10:38;12.10;1.00
20231;DHT22;10274;49.022;9.338;2023-04-24T08:13:05;12.10;1.00
20231;DHT22;10274;49.022;9.338;2023-04-24T08:15:33;12.20;98.80
20231;DHT22;10274;49.022;9.338;2023-04-24T08:18:00;12.30;1.00
20231;DHT22;10274;49.022;9.338;2023-04-24T08:20:27;13.10;1.00
20231;DHT22;10274;49.022;9.338;2023-04-24T08:22:53;13.70;1.00
20231;DHT22;10274;49.022;9.338;2023-04-24T08:25:21;14.10;1.00
20231;DHT22;10274;49.022;9.338;2023-04-24T08:27:50;15.00;16.50
20231;DHT22;10274;49.022;9.338;2023-04-24T08:30:17;16.90;99.90
20231;DHT22;10274;49.022;9.338;2023-04-24T08:32:45;15.60;35.30
20231;DHT22;10274;49.022;9.338;2023-04-24T08:35:12;14.60;99.90
20231;DHT22;10274;49.022;9.338;2023-04-24T08:37:39;16.10;15.60
20231;DHT22;10274;49.022;9.338;2023-04-24T08:40:12;15.50;1.00
20231;DHT22;10274;49.022;9.338;2023-04-24T08:42:39;16.30;1.00
20231;DHT22;10274;49.022;9.338;2023-04-24T08:45:09;16.30;1.00
20231;DHT22;10274;49.022;9.338;2023-04-24T08:47:36;16.50;1.00
20231;DHT22;10274;49.022;9.338;2023-04-24T08:50:06;17.40;1.00
20231;DHT22;10274;49.022;9.338;2023-04-24T08:52:34;15.20;1.00
20231;DHT22;10274;49.022;9.338;2023-04-24T08:55:01;14.90;1.00
20231;DHT22;10274;49.022;9.338;2023-04-24T08:57:28;14.10;1.00
20231;DHT22;10274;49.022;9.338;2023-04-24T08:59:57;13.40;1.00
20231;DHT22;10274;49.022;9.338;2023-04-24T09:02:25;13.10;27.20
20231;DHT22;10274;49.022;9.338;2023-04-24T09:04:52;13.00;82.40
20231;DHT22;10274;49.022;9.338;2023-04-24T09:07:22;12.80;99.90
20231;DHT22;10274;49.022;9.338;2023-04-24T09:09:50;12.40;99.90
20231;DHT22;10274;49.022;9.338;2023-04-24T09:12:18;12.50;99.90
20231;DHT22;10274;49.022;9.338;2023-04-24T09:14:45;12.50;99.90
20231;DHT22;10274;49.022;9.338;2023-04-24T09:17:12;12.30;99.90
20231;DHT22;10274;49.022;9.338;2023-04-24T09:19:39;12.60;99.90
20231;DHT22;10274;49.022;9.338;2023-04-24T09:22:06;13.40;99.90
20231;DHT22;10274;49.022;9.338;2023-04-24T09:24:34;15.40;1.00
20231;DHT22;10274;49.022;9.338;2023-04-24T09:27:02;15.40;1.00
20231;DHT22;10274;49.022;9.338;2023-04-24T09:29:29;14.70;1.00
20231;DHT22;10274;49.022;9.338;2023-04-24T09:31:57;15.30;1.00
20231;DHT22;10274;49.022;9.338;2023-04-24T09:34:24;14.20;1.00
20231;DHT22;10274;49.022;9.338;2023-04-24T09:36:52;13.70;1.00
20231;DHT22;10274;49.022;9.338;2023-04-24T09:39:19;13.70;1.00
20231;DHT22;10274;49.022;9.338;2023-04-24T09:41:49;13.70;1.00
20231;DHT22;10274;49.022;9.338;2023-04-24T09:44:17;13.60;60.40
20231;DHT22;10274;49.022;9.338;2023-04-24T09:46:49;13.10;19.40
20231;DHT22;10274;49.022;9.338;2023-04-24T09:49:21;13.00;99.90
20231;DHT22;10274;49.022;9.338;2023-04-24T09:51:48;12.90;99.90
20231;DHT22;10274;49.022;9.338;2023-04-24T09:54:15;12.90;99.90
20231;DHT22;10274;49.022;9.338;2023-04-24T09:56:43;13.10;99.90
20231;DHT22;10274;49.022;9.338;2023-04-24T09:59:13;13.10;99.90
20231;DHT22;10274;49.022;9.338;2023-04-24T10:01:40;13.40;99.90
20231;DHT22;10274;49.022;9.338;2023-04-24T10:04:16;13.40;99.90
20231;DHT22;10274;49.022;9.338;2023-04-24T10:06:44;13.40;97.00
20231;DHT22;10274;49.022;9.338;2023-04-24T10:09:11;13.20;99.90
20231;DHT22;10274;49.022;9.338;2023-04-24T10:11:41;13.20;99.90
20231;DHT22;10274;49.022;9.338;2023-04-24T10:14:09;13.30;46.70
20231;DHT22;10274;49.022;9.338;2023-04-24T10:16:39;15.40;1.00
20231;DHT22;10274;49.022;9.338;2023-04-24T10:19:06;15.90;1.00
20231;DHT22;10274;49.022;9.338;2023-04-24T10:21:34;15.80;1.00
20231;DHT22;10274;49.022;9.338;2023-04-24T10:24:01;15.00;1.00
20231;DHT22;10274;49.022;9.338;2023-04-24T10:26:29;14.50;1.00
20231;DHT22;10274;49.022;9.338;2023-04-24T10:28:57;14.00;1.00
20231;DHT22;10274;49.022;9.338;2023-04-24T10:31:25;14.10;1.00
20231;DHT22;10274;49.022;9.338;2023-04-24T10:33:54;13.30;1.00
20231;DHT22;10274;49.022;9.338;2023-04-24T10:36:22;12.90;1.00
20231;DHT22;10274;49.022;9.338;2023-04-24T10:38:53;12.50;17.60
20231;DHT22;10274;49.022;9.338;2023-04-24T10:41:21;12.30;41.10
20231;DHT22;10274;49.022;9.338;2023-04-24T10:43:48;12.20;29.50
20231;DHT22;10274;49.022;9.338;2023-04-24T10:46:19;12.10;23.80
20231;DHT22;10274;49.022;9.338;2023-04-24T10:48:54;12.10;33.70
20231;DHT22;10274;49.022;9.338;2023-04-24T10:51:22;12.10;83.30
20231;DHT22;10274;49.022;9.338;2023-04-24T10:53:50;12.40;99.90
20231;DHT22;10274;49.022;9.338;2023-04-24T10:56:17;12.50;99.90
20231;DHT22;10274;49.022;9.338;2023-04-24T10:58:45;12.40;99.90
20231;DHT22;10274;49.022;9.338;2023-04-24T11:01:25;12.40;80.20
20231;DHT22;10274;49.022;9.338;2023-04-24T11:03:57;12.70;31.50
20231;DHT22;10274;49.022;9.338;2023-04-24T11:06:30;13.00;1.00
20231;DHT22;10274;49.022;9.338;2023-04-24T11:09:03;13.60;1.00
20231;DHT22;10274;49.022;9.338;2023-04-24T11:11:30;14.30;1.00
20231;DHT22;10274;49.022;9.338;2023-04-24T11:14:02;14.20;1.00
20231;DHT22;10274;49.022;9.338;2023-04-24T11:16:31;13.90;1.00
20231;DHT22;10274;49.022;9.338;2023-04-24T11:19:05;13.30;1.00
20231;DHT22;10274;49.022;9.338;2023-04-24T11:21:38;13.30;1.00
20231;DHT22;10274;49.022;9.338;2023-04-24T11:24:32;13.50;1.00
20231;DHT22;10274;49.022;9.338;2023-04-24T11:27:06;13.10;1.00
20231;DHT22;10274;49.022;9.338;2023-04-24T11:29:44;12.80;1.00
20231;DHT22;10274;49.022;9.338;2023-04-24T11:32:16;12.60;9.30
20231;DHT22;10274;49.022;9.338;2023-04-24T11:34:47;12.50;37.40
20231;DHT22;10274;49.022;9.338;2023-04-24T11:37:14;12.40;8.80
20231;DHT22;10274;49.022;9.338;2023-04-24T11:39:41;12.30;43.70
20231;DHT22;10274;49.022;9.338;2023-04-24T11:42:09;12.20;65.10
20231;DHT22;10274;49.022;9.338;2023-04-24T11:44:35;12.20;1.00
20231;DHT22;10274;49.022;9.338;2023-04-24T11:47:02;12.10;58.80
20231;DHT22;10274;49.022;9.338;2023-04-24T11:49:29;12.10;28.60
20231;DHT22;10274;49.022;9.338;2023-04-24T11:51:57;12.00;42.80
20231;DHT22;10274;49.022;9.338;2023-04-24T11:54:24;12.10;66.20
20231;DHT22;10274;49.022;9.338;2023-04-24T11:56:50;12.10;81.30
20231;DHT22;10274;49.022;9.338;2023-04-24T11:59:17;12.00;56.60
20231;DHT22;10274;49.022;9.338;2023-04-24T12:01:44;12.10;97.60
20231;DHT22;10274;49.022;9.338;2023-04-24T12:04:12;12.30;94.00
20231;DHT22;10274;49.022;9.338;2023-04-24T12:06:39;12.50;99.90
20231;DHT22;10274;49.022;9.338;2023-04-24T12:09:07;12.50;67.80
20231;DHT22;10274;49.022;9.338;2023-04-24T12:11:35;12.60;13.20
20231;DHT22;10274;49.022;9.338;2023-04-24T12:14:10;12.60;1.00
20231;DHT22;10274;49.022;9.338;2023-04-24T12:16:37;12.40;1.00
20231;DHT22;10274;49.022;9.338;2023-04-24T12:19:04;12.20;36.70
20231;DHT22;10274;49.022;9.338;2023-04-24T12:21:31;12.00;99.90
20231;DHT22;10274;49.022;9.338;2023-04-24T12:23:58;12.20;99.90
20231;DHT22;10274;49.022;9.338;2023-04-24T12:26:27;12.20;99.90
20231;DHT22;10274;49.022;9.338;2023-04-24T12:28:54;12.40;99.90
20231;DHT22;10274;49.022;9.338;2023-04-24T12:31:21;12.30;99.90
20231;DHT22;10274;49.022;9.338;2023-04-24T12:33:48;12.60;99.90
20231;DHT22;10274;49.022;9.338;2023-04-24T12:36:15;12.80;99.90
20231;DHT22;10274;49.022;9.338;2023-04-24T12:38:43;12.80;99.90
20231;DHT22;10274;49.022;9.338;2023-04-24T12:41:13;12.70;99.90
20231;DHT22;10274;49.022;9.338;2023-04-24T12:43:52;12.60;99.90
20231;DHT22;10274;49.022;9.338;2023-04-24T12:46:19;12.30;99.90
20231;DHT22;10274;49.022;9.338;2023-04-24T12:48:46;11.80;1.00
20231;DHT22;10274;49.022;9.338;2023-04-24T12:51:12;10.80;1.00
20231;DHT22;10274;49.022;9.338;2023-04-24T12:53:39;10.30;1.00
20231;DHT22;10274;49.022;9.338;2023-04-24T12:56:06;10.00;1.00
20231;DHT22;10274;49.022;9.338;2023-04-24T12:58:32;9.90;1.00
20231;DHT22;10274;49.022;9.338;2023-04-24T13:01:00;10.10;16.30
20231;DHT22;10274;49.022;9.338;2023-04-24T13:03:27;10.10;10.60
20231;DHT22;10274;49.022;9.338;2023-04-24T13:05:54;10.00;23.30
20231;DHT22;10274;49.022;9.338;2023-04-24T13:08:20;10.20;36.70
20231;DHT22;10274;49.022;9.338;2023-04-24T13:10:47;10.30;49.30
20231;DHT22;10274;49.022;9.338;2023-04-24T13:13:14;10.40;1.00
20231;DHT22;10274;49.022;9.338;2023-04-24T13:15:41;10.80;1.00
20231;DHT22;10274;49.022;9.338;2023-04-24T13:18:09;11.20;1.00
20231;DHT22;10274;49.022;9.338;2023-04-24T13:20:36;11.30;1.00
20231;DHT22;10274;49.022;9.338;2023-04-24T13:23:02;11.50;1.00
20231;DHT22;10274;49.022;9.338;2023-04-24T13:25:34;11.80;1.00
20231;DHT22;10274;49.022;9.338;2023-04-24T13:28:00;12.30;1.00
20231;DHT22;10274;49.022;9.338;2023-04-24T13:30:27;12.60;99.90
20231;DHT22;10274;49.022;9.338;2023-04-24T13:32:54;12.50;1.00
20231;DHT22;10274;49.022;9.338;2023-04-24T13:35:22;12.70;1.00
20231;DHT22;10274;49.022;9.338;2023-04-24T13:37:48;12.80;99.90
20231;DHT22;10274;49.022;9.338;2023-04-24T13:40:15;12.60;58.30
20231;DHT22;10274;49.022;9.338;2023-04-24T13:42:42;12.60;1.00
20231;DHT22;10274;49.022;9.338;2023-04-24T13:45:10;12.40;99.90
20231;DHT22;10274;49.022;9.338;2023-04-24T13:47:37;12.20;99.90
20231;DHT22;10274;49.022;9.338;2023-04-24T13:50:07;12.10;1.00
20231;DHT22;10274;49.022;9.338;2023-04-24T13:52:35;12.50;99.90
20231;DHT22;10274;49.022;9.338;2023-04-24T13:55:01;12.70;99.90
20231;DHT22;10274;49.022;9.338;2023-04-24T13:57:28;13.00;1.00
20231;DHT22;10274;49.022;9.338;2023-04-24T13:59:56;13.80;1.00
20231;DHT22;10274;49.022;9.338;2023-04-24T14:02:26;14.30;99.90
20231;DHT22;10274;49.022;9.338;2023-04-24T14:04:53;14.30;1.00
20231;DHT22;10274;49.022;9.338;2023-04-24T14:07:20;14.20;1.00
20231;DHT22;10274;49.022;9.338;2023-04-24T14:09:48;14.00;1.00
20231;DHT22;10274;49.022;9.338;2023-04-24T14:12:15;13.90;1.00
20231;DHT22;10274;49.022;9.338;2023-04-24T14:14:45;13.90;1.00
20231;DHT22;10274;49.022;9.338;2023-04-24T14:17:12;14.00;1.00
20231;DHT22;10274;49.022;9.338;2023-04-24T14:19:39;14.00;1.00
20231;DHT22;10274;49.022;9.338;2023-04-24T14:22:05;13.90;1.00
20231;DHT22;10274;49.022;9.338;2023-04-24T14:24:32;13.70;1.00
20231;DHT22;10274;49.022;9.338;2023-04-24T14:27:00;13.60;1.00
20231;DHT22;10274;49.022;9.338;2023-04-24T14:29:27;13.30;1.00
20231;DHT22;10274;49.022;9.338;2023-04-24T14:31:53;13.00;1.00
20231;DHT22;10274;49.022;9.338;2023-04-24T14:34:20;13.10;1.00
20231;DHT22;10274;49.022;9.338;2023-04-24T14:36:47;12.90;1.00
20231;DHT22;10274;49.022;9.338;2023-04-24T14:39:13;12.70;1.00
20231;DHT22;10274;49.022;9.338;2023-04-24T14:41:40;12.30;1.00
20231;DHT22;10274;49.022;9.338;2023-04-24T14:44:08;12.00;1.00
20231;DHT22;10274;49.022;9.338;2023-04-24T14:46:36;12.10;99.90
20231;DHT22;10274;49.022;9.338;2023-04-24T14:49:02;12.40;99.90
20231;DHT22;10274;49.022;9.338;2023-04-24T14:51:29;13.00;99.90
20231;DHT22;10274;49.022;9.338;2023-04-24T14:53:56;13.50;99.90
20231;DHT22;10274;49.022;9.338;2023-04-24T14:56:23;13.80;1.00
20231;DHT22;10274;49.022;9.338;2023-04-24T14:58:49;14.20;1.00
20231;DHT22;10274;49.022;9.338;2023-04-24T15:01:18;13.90;1.00
20231;DHT22;10274;49.022;9.338;2023-04-24T15:03:44;13.80;1.00
20231;DHT22;10274;49.022;9.338;2023-04-24T15:06:11;13.50;1.00
20231;DHT22;10274;49.022;9.338;2023-04-24T15:08:38;13.20;1.00
20231;DHT22;10274;49.022;9.338;2023-04-24T15:11:04;13.00;1.00
20231;DHT22;10274;49.022;9.338;2023-04-24T15:13:31;13.00;1.00
20231;DHT22;10274;49.022;9.338;2023-04-24T15:15:58;13.10;1.00
20231;DHT22;10274;49.022;9.338;2023-04-24T15:18:26;12.90;1.00
20231;DHT22;10274;49.022;9.338;2023-04-24T15:20:54;13.20;1.00
20231;DHT22;10274;49.022;9.338;2023-04-24T15:23:21;13.90;1.00
20231;DHT22;10274;49.022;9.338;2023-04-24T15:25:48;14.10;1.00
20231;DHT22;10274;49.022;9.338;2023-04-24T15:28:14;14.10;1.00
20231;DHT22;10274;49.022;9.338;2023-04-24T15:30:41;14.10;1.00
20231;DHT22;10274;49.022;9.338;2023-04-24T15:33:08;13.90;1.00
20231;DHT22;10274;49.022;9.338;2023-04-24T15:35:36;13.60;1.00
20231;DHT22;10274;49.022;9.338;2023-04-24T15:38:03;13.40;1.00
20231;DHT22;10274;49.022;9.338;2023-04-24T15:40:30;13.10;1.00
20231;DHT22;10274;49.022;9.338;2023-04-24T15:42:56;13.00;1.00
20231;DHT22;10274;49.022;9.338;2023-04-24T15:45:24;13.00;1.00